createdAt,value
2018-09-30T00:02:40.049Z,102096.02
2018-09-30T00:05:45.441Z,102093.59
2018-09-30T00:08:50.830Z,102083.69
2018-09-30T00:11:56.233Z,102081.92
2018-09-30T00:15:01.628Z,102074.10
2018-09-30T00:18:07.414Z,102076.70
2018-09-30T00:21:12.807Z,102066.59
2018-09-30T00:24:23.410Z,102070.76
2018-09-30T00:27:28.797Z,102063.26
2018-09-30T00:30:34.184Z,102058.83
2018-09-30T00:33:44.666Z,102053.63
2018-09-30T00:36:50.070Z,102047.88
2018-09-30T00:39:55.458Z,102041.81
2018-09-30T00:43:00.868Z,102040.98
2018-09-30T00:46:06.307Z,102037.94
2018-09-30T00:49:11.709Z,102036.98
2018-09-30T00:52:17.111Z,102026.87
2018-09-30T00:55:22.489Z,102029.87
2018-09-30T00:58:27.903Z,102027.44
2018-09-30T01:01:33.294Z,102023.77
2018-09-30T01:04:38.696Z,102017.20
2018-09-30T01:07:44.086Z,102011.12
2018-09-30T01:10:49.466Z,102014.14
2018-09-30T01:13:55.042Z,102009.69
2018-09-30T01:17:00.434Z,102006.30
2018-09-30T01:20:05.834Z,102012.70
2018-09-30T01:23:11.265Z,102005.05
2018-09-30T01:26:16.648Z,102008.71
2018-09-30T01:29:22.059Z,102001.37
2018-09-30T01:32:27.450Z,102000.07
2018-09-30T01:35:32.874Z,101999.14
2018-09-30T01:38:38.491Z,101994.34
2018-09-30T01:41:43.862Z,101994.25
2018-09-30T01:44:49.291Z,101991.83
2018-09-30T01:47:54.854Z,101992.94
2018-09-30T01:51:00.237Z,101986.03
2018-09-30T01:54:05.655Z,101981.88
2018-09-30T01:57:11.042Z,101975.84
2018-09-30T02:00:17.201Z,101970.28
2018-09-30T02:03:22.653Z,101971.66
2018-09-30T02:06:28.238Z,101957.32
2018-09-30T02:09:34.147Z,101950.97
2018-09-30T02:12:39.571Z,101951.76
2018-09-30T02:15:44.946Z,101945.98
2018-09-30T02:18:50.361Z,101951.69
2018-09-30T02:21:55.738Z,101941.70
2018-09-30T02:25:01.153Z,101934.11
2018-09-30T02:28:06.565Z,101932.49
2018-09-30T02:31:11.956Z,101928.71
2018-09-30T02:34:17.378Z,101931.56
2018-09-30T02:37:23.090Z,101930.41
2018-09-30T02:40:28.483Z,101919.64
2018-09-30T02:43:33.869Z,101917.16
2018-09-30T02:46:39.250Z,101908.33
2018-09-30T02:49:44.641Z,101904.31
2018-09-30T02:52:50.015Z,101909.99
2018-09-30T02:55:55.403Z,101901.38
2018-09-30T02:59:00.815Z,101897.48
2018-09-30T03:02:07.226Z,101891.81
2018-09-30T03:05:12.994Z,101885.31
2018-09-30T03:08:23.594Z,101877.58
2018-09-30T03:11:28.995Z,101881.02
2018-09-30T03:14:34.418Z,101880.45
2018-09-30T03:17:39.947Z,101875.34
2018-09-30T03:20:45.336Z,101875.55
2018-09-30T03:23:50.747Z,101869.28
2018-09-30T03:26:56.104Z,101873.74
2018-09-30T03:30:01.496Z,101872.81
2018-09-30T03:33:06.947Z,101875.75
2018-09-30T03:36:12.451Z,101861.59
2018-09-30T03:39:18.272Z,101859.38
2018-09-30T03:42:23.695Z,101853.67
2018-09-30T03:45:29.101Z,101847.17
2018-09-30T03:48:34.466Z,101846.27
2018-09-30T03:51:40.274Z,101839.36
2018-09-30T03:54:45.728Z,101841.08
2018-09-30T03:57:51.115Z,101839.53
2018-09-30T04:00:56.521Z,101826.94
2018-09-30T04:04:02.634Z,101828.09
2018-09-30T04:07:08.042Z,101822.93
2018-09-30T04:10:13.527Z,101822.39
2018-09-30T04:13:19.099Z,101825.78
2018-09-30T04:16:24.515Z,101817.63
2018-09-30T04:19:30.484Z,101815.85
2018-09-30T04:22:35.851Z,101816.27
2018-09-30T04:25:41.261Z,101818.47
2018-09-30T04:28:46.650Z,101807.89
2018-09-30T04:31:52.043Z,101811.36
2018-09-30T04:34:57.491Z,101803.94
2018-09-30T04:38:02.854Z,101804.42
2018-09-30T04:41:08.679Z,101801.53
2018-09-30T04:44:14.083Z,101806.34
2018-09-30T04:47:19.486Z,101794.38
2018-09-30T04:50:24.934Z,101787.77
2018-09-30T04:53:30.321Z,101786.22
2018-09-30T04:56:35.728Z,101786.41
2018-09-30T04:59:41.156Z,101785.45
2018-09-30T05:02:46.566Z,101782.89
2018-09-30T05:05:52.024Z,101779.36
2018-09-30T05:08:57.599Z,101780.21
2018-09-30T05:12:03.065Z,101780.86
2018-09-30T05:15:08.822Z,101781.77
2018-09-30T05:18:14.186Z,101771.44
2018-09-30T05:21:19.584Z,101775.05
2018-09-30T05:24:24.982Z,101767.43
2018-09-30T05:27:30.395Z,101771.90
2018-09-30T05:30:35.851Z,101767.78
2018-09-30T05:33:41.246Z,101763.64
2018-09-30T05:36:46.654Z,101757.61
2018-09-30T05:39:52.046Z,101754.75
2018-09-30T05:42:57.443Z,101752.14
2018-09-30T05:46:02.856Z,101756.12
2018-09-30T05:49:08.897Z,101761.95
2018-09-30T05:52:14.607Z,101765.48
2018-09-30T05:55:20.030Z,101765.03
2018-09-30T05:58:25.419Z,101754.63
2018-09-30T06:01:30.819Z,101756.38
2018-09-30T06:04:36.237Z,101755.64
2018-09-30T06:07:41.643Z,101752.66
2018-09-30T06:10:47.056Z,101745.87
2018-09-30T06:13:52.468Z,101751.16
2018-09-30T06:16:58.077Z,101753.97
2018-09-30T06:20:03.493Z,101750.08
2018-09-30T06:23:09.091Z,101739.48
2018-09-30T06:26:14.496Z,101741.92
2018-09-30T06:29:20.362Z,101732.66
2018-09-30T06:32:25.787Z,101738.23
2018-09-30T06:35:31.229Z,101734.38
2018-09-30T06:38:36.635Z,101732.34
2018-09-30T06:41:42.041Z,101727.91
2018-09-30T06:44:47.470Z,101721.33
2018-09-30T06:47:53.378Z,101721.58
2018-09-30T06:50:58.912Z,101722.07
2018-09-30T06:54:04.454Z,101720.69
2018-09-30T06:57:10.245Z,101723.33
2018-09-30T07:00:15.635Z,101721.73
2018-09-30T07:03:21.058Z,101724.02
2018-09-30T07:06:26.499Z,101731.48
2018-09-30T07:09:31.873Z,101731.89
2018-09-30T07:12:37.278Z,101740.62
2018-09-30T07:15:43.358Z,101747.45
2018-09-30T07:18:48.744Z,101739.15
2018-09-30T07:21:54.162Z,101738.30
2018-09-30T07:24:59.559Z,101728.72
2018-09-30T07:28:04.958Z,101716.73
2018-09-30T07:31:10.411Z,101708.55
2018-09-30T07:34:15.827Z,101715.05
2018-09-30T07:37:21.574Z,101716.55
2018-09-30T07:40:27.553Z,101711.87
2018-09-30T07:43:32.950Z,101708.84
2018-09-30T07:46:38.518Z,101707.80
2018-09-30T07:49:44.122Z,101706.47
2018-09-30T07:52:49.527Z,101712.91
2018-09-30T07:55:54.915Z,101716.52
2018-09-30T07:59:00.702Z,101718.91
2018-09-30T08:02:06.182Z,101718.86
2018-09-30T08:05:11.906Z,101719.19
2018-09-30T08:08:17.565Z,101720.23
2018-09-30T08:11:22.946Z,101715.31
2018-09-30T08:14:28.591Z,101705.10
2018-09-30T08:17:34.007Z,101696.33
2018-09-30T08:20:39.419Z,101707.86
2018-09-30T08:23:44.818Z,101705.84
2018-09-30T08:26:50.747Z,101703.83
2018-09-30T08:29:56.147Z,101709.43
2018-09-30T08:33:01.550Z,101714.33
2018-09-30T08:36:08.951Z,101700.41
2018-09-30T08:39:14.730Z,101703.34
2018-09-30T08:42:20.166Z,101699.05
2018-09-30T08:45:25.569Z,101703.20
2018-09-30T08:48:31.030Z,101703.30
2018-09-30T08:51:36.431Z,101699.95
2018-09-30T08:54:41.864Z,101693.28
2018-09-30T08:57:47.886Z,101691.86
2018-09-30T09:00:53.389Z,101695.35
2018-09-30T09:03:59.262Z,101693.38
2018-09-30T09:07:04.651Z,101686.27
2018-09-30T09:10:10.067Z,101691.91
2018-09-30T09:13:15.507Z,101683.16
2018-09-30T09:16:20.882Z,101677.64
2018-09-30T09:19:26.319Z,101683.68
2018-09-30T09:22:31.831Z,101685.41
2018-09-30T09:25:37.618Z,101680.99
2018-09-30T09:28:43.269Z,101683.65
2018-09-30T09:31:48.693Z,101673.13
2018-09-30T09:34:54.328Z,101664.47
2018-09-30T09:38:00.054Z,101657.92
2018-09-30T09:41:05.775Z,101658.54
2018-09-30T09:44:11.450Z,101645.01
2018-09-30T09:47:17.621Z,101639.91
2018-09-30T09:50:23.399Z,101633.50
2018-09-30T09:53:28.926Z,101623.33
2018-09-30T09:56:34.317Z,101629.95
2018-09-30T09:59:40.300Z,101629.31
2018-09-30T10:02:45.706Z,101628.58
2018-09-30T10:05:51.354Z,101639.06
2018-09-30T10:08:56.777Z,101620.73
2018-09-30T10:12:02.266Z,101621.69
2018-09-30T10:15:08.054Z,101615.86
2018-09-30T10:18:13.530Z,101615.05
2018-09-30T10:21:18.919Z,101596.09
2018-09-30T10:24:24.322Z,101605.83
2018-09-30T10:27:30.530Z,101601.98
2018-09-30T10:30:35.958Z,101594.84
2018-09-30T10:33:41.412Z,101602.00
2018-09-30T10:36:46.808Z,101586.88
2018-09-30T10:39:53.211Z,101586.97
2018-09-30T10:42:59.098Z,101584.70
2018-09-30T10:46:04.719Z,101583.20
2018-09-30T10:49:10.182Z,101574.27
2018-09-30T10:52:15.564Z,101568.27
2018-09-30T10:55:20.998Z,101552.89
2018-09-30T10:58:26.625Z,101552.61
2018-09-30T11:01:31.991Z,101553.05
2018-09-30T11:04:37.404Z,101553.39
2018-09-30T11:07:42.788Z,101542.11
2018-09-30T11:10:48.194Z,101536.00
2018-09-30T11:13:53.606Z,101530.92
2018-09-30T11:16:59.043Z,101526.96
2018-09-30T11:20:04.605Z,101527.77
2018-09-30T11:23:09.994Z,101528.05
2018-09-30T11:26:15.394Z,101519.86
2018-09-30T11:29:20.898Z,101512.86
2018-09-30T11:32:26.267Z,101515.73
2018-09-30T11:35:31.690Z,101520.77
2018-09-30T11:38:37.538Z,101513.40
2018-09-30T11:41:44.398Z,101509.84
2018-09-30T11:44:49.881Z,101511.22
2018-09-30T11:47:55.250Z,101510.05
2018-09-30T11:51:02.844Z,101505.72
2018-09-30T11:54:08.603Z,101502.45
2018-09-30T11:57:14.338Z,101492.11
2018-09-30T12:00:19.798Z,101486.86
2018-09-30T12:03:25.175Z,101488.88
2018-09-30T12:06:30.589Z,101482.59
2018-09-30T12:09:36.146Z,101476.52
2018-09-30T12:12:41.518Z,101484.06
2018-09-30T12:15:47.055Z,101482.16
2018-09-30T12:18:52.539Z,101470.67
2018-09-30T12:21:57.937Z,101464.03
2018-09-30T12:25:03.431Z,101464.33
2018-09-30T12:28:08.914Z,101461.55
2018-09-30T12:31:14.327Z,101449.38
2018-09-30T12:34:19.878Z,101442.18
2018-09-30T12:37:25.302Z,101434.20
2018-09-30T12:40:30.793Z,101429.64
2018-09-30T12:43:37.370Z,101430.21
2018-09-30T12:46:42.894Z,101431.09
2018-09-30T12:49:48.310Z,101428.02
2018-09-30T12:52:53.794Z,101419.48
2018-09-30T12:55:59.266Z,101425.04
2018-09-30T12:59:04.871Z,101419.16
2018-09-30T13:02:10.622Z,101417.35
2018-09-30T13:05:16.130Z,101411.16
2018-09-30T13:08:21.726Z,101407.16
2018-09-30T13:11:27.147Z,101410.01
2018-09-30T13:14:32.583Z,101408.27
2018-09-30T13:17:38.002Z,101395.75
2018-09-30T13:20:43.462Z,101400.36
2018-09-30T13:23:49.041Z,101400.44
2018-09-30T13:26:54.542Z,101391.28
2018-09-30T13:29:59.960Z,101391.46
2018-09-30T13:33:05.429Z,101393.61
2018-09-30T13:36:11.094Z,101390.45
2018-09-30T13:39:16.593Z,101386.25
2018-09-30T13:42:22.111Z,101379.97
2018-09-30T13:45:27.613Z,101387.69
2018-09-30T13:48:32.986Z,101380.14
2018-09-30T13:51:38.404Z,101379.66
2018-09-30T13:54:43.789Z,101374.72
2018-09-30T13:57:50.263Z,101367.89
2018-09-30T14:00:55.746Z,101367.77
2018-09-30T14:04:01.175Z,101370.68
2018-09-30T14:07:08.112Z,101371.73
2018-09-30T14:10:14.256Z,101369.37
2018-09-30T14:13:21.372Z,101367.00
2018-09-30T14:16:27.655Z,101372.80
2018-09-30T14:19:33.266Z,101362.17
2018-09-30T14:22:38.739Z,101362.53
2018-09-30T14:25:44.194Z,101362.91
2018-09-30T14:28:49.715Z,101361.56
2018-09-30T14:31:55.163Z,101360.69
2018-09-30T14:35:01.497Z,101351.51
2018-09-30T14:38:07.656Z,101348.11
2018-09-30T14:41:13.968Z,101350.58
2018-09-30T14:44:19.433Z,101349.25
2018-09-30T14:47:24.910Z,101352.91
2018-09-30T14:50:30.310Z,101345.05
2018-09-30T14:53:36.389Z,101352.55
2018-09-30T14:56:41.846Z,101346.50
2018-09-30T14:59:47.330Z,101348.56
2018-09-30T15:02:53.140Z,101352.65
2018-09-30T15:05:58.612Z,101343.87
2018-09-30T15:09:06.396Z,101339.92
2018-09-30T15:12:11.846Z,101337.88
2018-09-30T15:15:17.262Z,101339.30
2018-09-30T15:18:22.694Z,101336.89
2018-09-30T15:21:28.142Z,101332.08
2018-09-30T15:24:33.557Z,101323.21
2018-09-30T15:27:40.774Z,101317.05
2018-09-30T15:30:46.291Z,101309.37
2018-09-30T15:33:51.762Z,101314.72
2018-09-30T15:36:57.180Z,101308.09
2018-09-30T15:40:02.608Z,101311.47
2018-09-30T15:43:08.091Z,101311.09
2018-09-30T15:46:13.539Z,101301.77
2018-09-30T15:49:19.033Z,101308.88
2018-09-30T15:52:24.554Z,101305.52
2018-09-30T15:55:30.321Z,101304.77
2018-09-30T15:58:36.244Z,101309.33
2018-09-30T16:01:41.674Z,101308.70
2018-09-30T16:04:58.603Z,101313.16
2018-09-30T16:08:04.039Z,101308.86
2018-09-30T16:11:09.460Z,101305.69
2018-09-30T16:14:14.902Z,101308.05
2018-09-30T16:17:21.227Z,101307.01
2018-09-30T16:20:27.614Z,101312.29
2018-09-30T16:23:33.055Z,101301.33
2018-09-30T16:26:38.442Z,101303.89
2018-09-30T16:29:43.862Z,101307.42
2018-09-30T16:32:49.301Z,101302.42
2018-09-30T16:35:54.735Z,101299.67
2018-09-30T16:39:00.174Z,101300.86
2018-09-30T16:42:05.598Z,101295.22
2018-09-30T16:45:11.190Z,101304.52
2018-09-30T16:48:16.638Z,101301.23
2018-09-30T16:51:22.058Z,101298.93
2018-09-30T16:54:29.602Z,101297.98
2018-09-30T16:57:35.286Z,101290.30
2018-09-30T17:00:40.761Z,101304.16
2018-09-30T17:03:46.218Z,101308.30
2018-09-30T17:06:51.865Z,101301.20
2018-09-30T17:09:57.494Z,101299.33
2018-09-30T17:13:03.008Z,101309.84
2018-09-30T17:16:09.139Z,101305.55
2018-09-30T17:19:15.099Z,101314.73
2018-09-30T17:22:20.890Z,101319.80
2018-09-30T17:25:26.329Z,101317.84
2018-09-30T17:28:31.786Z,101321.78
2018-09-30T17:31:37.777Z,101325.23
2018-09-30T17:34:43.299Z,101331.24
2018-09-30T17:37:48.785Z,101324.87
2018-09-30T17:40:54.498Z,101327.48
2018-09-30T17:44:00.011Z,101323.55
2018-09-30T17:47:05.575Z,101321.13
2018-09-30T17:50:11.027Z,101317.58
2018-09-30T17:53:16.598Z,101317.56
2018-09-30T17:56:22.831Z,101322.25
2018-09-30T17:59:28.983Z,101321.02
2018-09-30T18:02:34.401Z,101319.90
2018-09-30T18:05:39.878Z,101323.73
2018-09-30T18:08:45.351Z,101317.92
2018-09-30T18:11:50.797Z,101318.34
2018-09-30T18:14:56.250Z,101311.58
2018-09-30T18:18:01.703Z,101316.36
2018-09-30T18:21:07.402Z,101314.84
2018-09-30T18:24:12.917Z,101312.77
2018-09-30T18:27:18.338Z,101306.22
2018-09-30T18:30:23.771Z,101305.06
2018-09-30T18:33:29.239Z,101308.63
2018-09-30T18:36:35.262Z,101294.95
2018-09-30T18:39:40.723Z,101289.39
2018-09-30T18:42:46.338Z,101299.00
2018-09-30T18:45:51.799Z,101294.89
2018-09-30T18:48:57.222Z,101293.77
2018-09-30T18:52:02.634Z,101291.14
2018-09-30T18:55:08.093Z,101285.36
2018-09-30T18:58:13.990Z,101291.06
2018-09-30T19:01:19.450Z,101282.41
2018-09-30T19:04:24.867Z,101275.58
2018-09-30T19:07:30.767Z,101275.87
2018-09-30T19:10:36.207Z,101273.25
2018-09-30T19:13:41.658Z,101272.05
2018-09-30T19:16:47.102Z,101269.21
2018-09-30T19:19:52.550Z,101268.63
2018-09-30T19:22:58.090Z,101257.20
2018-09-30T19:26:03.734Z,101257.39
2018-09-30T19:29:09.218Z,101258.12
2018-09-30T19:32:15.371Z,101257.06
2018-09-30T19:35:20.923Z,101260.58
2018-09-30T19:38:26.372Z,101257.08
2018-09-30T19:41:31.828Z,101255.23
2018-09-30T19:44:37.495Z,101258.83
2018-09-30T19:47:42.914Z,101255.81
2018-09-30T19:50:48.362Z,101256.53
2018-09-30T19:53:53.856Z,101254.86
2018-09-30T19:56:59.475Z,101253.08
2018-09-30T20:00:05.319Z,101252.95
2018-09-30T20:03:11.178Z,101245.88
2018-09-30T20:06:16.618Z,101248.09
2018-09-30T20:09:22.046Z,101243.80
2018-09-30T20:12:27.554Z,101246.66
2018-09-30T20:15:33.012Z,101235.66
2018-09-30T20:18:38.511Z,101226.16
2018-09-30T20:21:43.957Z,101224.72
2018-09-30T20:24:49.450Z,101218.85
2018-09-30T20:27:55.086Z,101214.78
2018-09-30T20:31:00.530Z,101218.31
2018-09-30T20:34:06.249Z,101217.41
2018-09-30T20:37:11.904Z,101209.70
2018-09-30T20:40:17.434Z,101210.00
2018-09-30T20:43:22.915Z,101203.16
2018-09-30T20:46:28.345Z,101200.18
2018-09-30T20:49:33.777Z,101204.87
2018-09-30T20:52:39.219Z,101195.78
2018-09-30T20:55:44.695Z,101200.65
2018-09-30T20:58:50.318Z,101198.11
2018-09-30T21:01:55.767Z,101203.14
2018-09-30T21:05:13.707Z,101200.05
2018-09-30T21:08:19.534Z,101198.05
2018-09-30T21:11:26.141Z,101208.78
2018-09-30T21:14:31.811Z,101201.84
2018-09-30T21:17:37.647Z,101198.70
2018-09-30T21:20:43.874Z,101198.03
2018-09-30T21:23:49.295Z,101196.13
2018-09-30T21:26:54.750Z,101191.44
2018-09-30T21:30:00.162Z,101189.36
2018-09-30T21:33:07.214Z,101193.92
2018-09-30T21:36:12.663Z,101187.76
2018-09-30T21:39:18.183Z,101197.38
2018-09-30T21:42:23.626Z,101186.92
2018-09-30T21:45:29.034Z,101193.09
2018-09-30T21:48:34.533Z,101190.47
2018-09-30T21:51:40.196Z,101180.92
2018-09-30T21:54:45.613Z,101186.08
2018-09-30T21:57:51.062Z,101180.45
2018-09-30T22:01:01.726Z,101173.85
2018-09-30T22:04:07.530Z,101179.62
2018-09-30T22:07:13.106Z,101175.70
2018-09-30T22:10:18.562Z,101174.56
2018-09-30T22:13:24.415Z,101166.36
2018-09-30T22:16:29.942Z,101165.05
2018-09-30T22:19:35.367Z,101159.52
2018-09-30T22:22:40.863Z,101164.28
2018-09-30T22:25:46.588Z,101154.00
2018-09-30T22:28:52.013Z,101151.16
2018-09-30T22:31:57.449Z,101148.00
2018-09-30T22:35:02.894Z,101147.16
2018-09-30T22:38:08.331Z,101149.08
2018-09-30T22:41:13.746Z,101149.08
2018-09-30T22:44:19.377Z,101140.34
2018-09-30T22:47:24.797Z,101142.41
2018-09-30T22:50:30.529Z,101139.39
2018-09-30T22:53:36.151Z,101136.31
2018-09-30T22:56:41.570Z,101133.45
2018-09-30T22:59:47.006Z,101129.91
2018-09-30T23:02:52.449Z,101127.30
2018-09-30T23:05:57.869Z,101129.17
2018-09-30T23:09:03.342Z,101118.13
2018-09-30T23:12:08.767Z,101118.89
2018-09-30T23:15:14.543Z,101117.41
2018-09-30T23:18:20.044Z,101114.23
2018-09-30T23:21:25.481Z,101109.00
2018-09-30T23:24:30.914Z,101118.14
2018-09-30T23:27:36.346Z,101117.23
2018-09-30T23:30:41.762Z,101114.23
2018-09-30T23:33:47.207Z,101123.30
2018-09-30T23:36:53.407Z,101124.68
2018-09-30T23:39:58.923Z,101125.25
2018-09-30T23:43:04.370Z,101120.09
2018-09-30T23:46:09.797Z,101119.68
2018-09-30T23:49:15.271Z,101114.92
2018-09-30T23:52:20.714Z,101109.77
2018-09-30T23:55:26.140Z,101112.73
2018-09-30T23:58:31.682Z,101104.17
